createdAt,value
2024-05-09T00:08:13.516Z,0.80
2024-05-09T00:21:13.452Z,0.60
2024-05-09T00:34:13.480Z,0.60
2024-05-09T00:47:13.561Z,0.50
2024-05-09T01:00:18.568Z,0.60
2024-05-09T01:13:13.469Z,0.50
2024-05-09T01:26:13.521Z,0.50
2024-05-09T01:39:13.485Z,0.50
2024-05-09T01:52:13.493Z,0.40
2024-05-09T02:05:13.614Z,0.50
2024-05-09T02:18:13.932Z,0.40
2024-05-09T02:31:13.562Z,0.40
2024-05-09T02:44:13.535Z,0.40
2024-05-09T02:57:13.525Z,0.30
2024-05-09T03:10:18.118Z,0.40
2024-05-09T03:23:13.665Z,0.40
2024-05-09T03:36:13.567Z,0.30
2024-05-09T03:50:17.981Z,0.30
2024-05-09T04:04:13.617Z,0.20
2024-05-09T04:18:13.591Z,0.20
2024-05-09T04:33:14.341Z,0.30
2024-05-09T04:47:13.704Z,0.30
2024-05-09T05:01:13.658Z,0.30
2024-05-09T05:15:13.594Z,2.10
2024-05-09T05:29:13.679Z,1.25
2024-05-09T05:43:13.604Z,1.40
2024-05-09T05:57:13.599Z,1.20
2024-05-09T06:11:13.840Z,1.30
2024-05-09T06:25:13.606Z,1.10
2024-05-09T06:39:13.649Z,1.00
2024-05-09T06:53:13.726Z,0.70
2024-05-09T07:07:13.647Z,17.30
2024-05-09T07:21:13.783Z,15.50
2024-05-09T07:35:13.692Z,12.25
2024-05-09T07:50:01.393Z,8.90
2024-05-09T08:03:13.718Z,7.70
2024-05-09T08:17:13.733Z,7.00
2024-05-09T08:31:13.730Z,5.00
2024-05-09T08:45:13.702Z,4.80
2024-05-09T08:59:13.708Z,5.00
2024-05-09T09:13:13.798Z,4.60
2024-05-09T09:27:13.700Z,3.80
2024-05-09T09:41:13.728Z,3.30
2024-05-09T09:55:13.878Z,3.10
2024-05-09T10:09:13.741Z,3.20
2024-05-09T10:23:13.791Z,2.40
2024-05-09T10:37:13.839Z,2.40
2024-05-09T10:51:13.822Z,2.10
2024-05-09T11:05:13.908Z,2.10
2024-05-09T11:19:14.064Z,2.00
2024-05-09T11:33:13.929Z,1.60
2024-05-09T11:47:13.887Z,1.40
2024-05-09T12:01:13.913Z,1.30
2024-05-09T12:15:13.865Z,1.20
2024-05-09T12:29:13.865Z,0.90
2024-05-09T12:44:13.887Z,0.80
2024-05-09T12:58:13.899Z,0.80
2024-05-09T13:12:13.917Z,0.80
2024-05-09T13:26:13.906Z,0.70
2024-05-09T13:40:14.445Z,0.70
2024-05-09T13:54:13.924Z,0.60
2024-05-09T14:08:13.916Z,0.70
2024-05-09T14:22:13.995Z,0.50
2024-05-09T14:36:13.916Z,0.50
2024-05-09T14:50:19.399Z,0.50
2024-05-09T15:04:14.059Z,0.50
2024-05-09T15:18:14.070Z,0.50
2024-05-09T15:32:13.986Z,0.40
2024-05-09T15:46:13.991Z,0.40
2024-05-09T16:00:18.259Z,0.40
2024-05-09T16:14:13.979Z,0.50
2024-05-09T16:28:14.038Z,0.50
2024-05-09T16:42:13.979Z,0.60
2024-05-09T16:57:13.996Z,0.50
2024-05-09T17:11:14.047Z,0.40
2024-05-09T17:25:14.012Z,0.60
2024-05-09T17:39:13.980Z,0.60
2024-05-09T17:53:14.001Z,0.60
2024-05-09T18:07:14.057Z,0.60
2024-05-09T18:21:14.008Z,0.60
2024-05-09T18:35:14.010Z,0.50
2024-05-09T18:49:14.154Z,0.60
2024-05-09T19:03:14.637Z,0.50
2024-05-09T19:17:14.009Z,0.70
2024-05-09T19:30:17.585Z,0.50
2024-05-09T19:43:14.070Z,0.70
2024-05-09T19:56:14.060Z,1.10
2024-05-09T20:09:14.085Z,2.10
2024-05-09T20:22:14.224Z,2.30
2024-05-09T20:35:14.814Z,2.80
2024-05-09T20:48:14.128Z,3.50
2024-05-09T21:01:14.157Z,3.30
2024-05-09T21:14:14.109Z,3.00
2024-05-09T21:27:14.112Z,3.00
2024-05-09T21:40:20.968Z,2.50
2024-05-09T21:53:14.106Z,2.50
2024-05-09T22:06:14.118Z,2.30
2024-05-09T22:19:14.140Z,2.30
2024-05-09T22:24:37.930Z,2.00
2024-05-09T22:37:37.924Z,2.10
2024-05-09T22:50:37.911Z,2.00
2024-05-09T23:03:38.055Z,1.70
2024-05-09T23:16:38.506Z,1.50
2024-05-09T23:29:38.494Z,1.50
2024-05-09T23:42:38.067Z,1.50
2024-05-09T23:55:38.441Z,1.50
